Home > Products > Valid Products > TAF

000
FTUS43 KARX 310520
TAFRST
TAF
KRST 310520Z 3106/0106 28006KT P6SM SKC
     FM311500 28007KT P6SM SCT050
     FM010200 24003KT P6SM SKC=



000
FTUS43 KARX 310520
TAFLSE
TAF
KLSE 310520Z 3106/0106 VRB04KT P6SM SKC
     FM310900 12004KT P6SM VCFG SCT004
      TEMPO 3110/3112 2SM BR
     FM311315 28006KT P6SM SCT050
     FM010200 VRB03KT P6SM SKC=



000
FTUS43 KARX 310520
TAFRST
TAF
KRST 310520Z 3106/0106 28006KT P6SM SKC
     FM311500 28007KT P6SM SCT050
     FM010200 24003KT P6SM SKC=



000
FTUS43 KARX 310520
TAFLSE
TAF
KLSE 310520Z 3106/0106 VRB04KT P6SM SKC
     FM310900 12004KT P6SM VCFG SCT004
      TEMPO 3110/3112 2SM BR
     FM311315 28006KT P6SM SCT050
     FM010200 VRB03KT P6SM SKC=



000
FTUS43 KARX 302322
TAFRST
TAF
KRST 302322Z 3100/3124 28006KT P6SM SCT050
     FM311500 28007KT P6SM SCT050=



000
FTUS43 KARX 302322
TAFRST
TAF
KRST 302322Z 3100/3124 28006KT P6SM SCT050
     FM311500 28007KT P6SM SCT050=



000
FTUS43 KARX 302322
TAFLSE
TAF
KLSE 302322Z 3100/3124 31007KT P6SM SKC
      TEMPO 3101/3103 -SHRA BKN050
     FM310300 VRB04KT P6SM SCT080
     FM310900 12004KT P6SM VCFG SCT004
     FM311315 27006KT P6SM SCT050=



000
FTUS43 KARX 302322
TAFLSE
TAF
KLSE 302322Z 3100/3124 31007KT P6SM SKC
      TEMPO 3101/3103 -SHRA BKN050
     FM310300 VRB04KT P6SM SCT080
     FM310900 12004KT P6SM VCFG SCT004
     FM311315 27006KT P6SM SCT050=



000
FTUS43 KARX 302026 AAA
TAFLSE
TAF AMD
KLSE 302026Z 3020/3118 31007KT P6SM SCT050
     FM302300 31007KT P6SM VCSH BKN050
     FM310300 VRB04KT P6SM SCT050
     FM310900 15004KT P6SM BCFG SCT006
     FM311315 24006KT P6SM FEW050=



000
FTUS43 KARX 302026 AAA
TAFLSE
TAF AMD
KLSE 302026Z 3020/3118 31007KT P6SM SCT050
     FM302300 31007KT P6SM VCSH BKN050
     FM310300 VRB04KT P6SM SCT050
     FM310900 15004KT P6SM BCFG SCT006
     FM311315 24006KT P6SM FEW050=



000
FTUS43 KARX 301720
TAFLSE
TAF
KLSE 301720Z 3018/3118 31007KT P6SM SCT050
     FM302000 31007KT P6SM VCSH BKN050
     FM310200 VRB04KT P6SM SCT050
     FM310900 15004KT P6SM BCFG SCT006
     FM311315 24006KT P6SM FEW050=



000
FTUS43 KARX 301720
TAFRST
TAF
KRST 301720Z 3018/3118 32007KT P6SM SCT050
     FM302000 30007KT P6SM VCSH BKN050
     FM310200 26006KT P6SM SCT050
     FM311500 28008KT P6SM SCT050=



000
FTUS43 KARX 301720
TAFLSE
TAF
KLSE 301720Z 3018/3118 31007KT P6SM SCT050
     FM302000 31007KT P6SM VCSH BKN050
     FM310200 VRB04KT P6SM SCT050
     FM310900 15004KT P6SM BCFG SCT006
     FM311315 24006KT P6SM FEW050=



000
FTUS43 KARX 301720
TAFRST
TAF
KRST 301720Z 3018/3118 32007KT P6SM SCT050
     FM302000 30007KT P6SM VCSH BKN050
     FM310200 26006KT P6SM SCT050
     FM311500 28008KT P6SM SCT050=



000
FTUS43 KARX 301136
TAFLSE
TAF
KLSE 301136Z 3012/3112 33004KT P6SM SKC
     FM301500 31005KT P6SM SCT050
     FM302000 31007KT P6SM VCSH BKN050
     FM310200 VRB04KT P6SM SCT050=



000
FTUS43 KARX 301136
TAFRST
TAF
KRST 301136Z 3012/3112 29006KT P6SM SKC
     FM301500 33006KT P6SM SCT050
     FM302000 33007KT P6SM VCSH BKN050
     FM310200 29004KT P6SM SCT050=



000
FTUS43 KARX 301136
TAFLSE
TAF
KLSE 301136Z 3012/3112 33004KT P6SM SKC
     FM301500 31005KT P6SM SCT050
     FM302000 31007KT P6SM VCSH BKN050
     FM310200 VRB04KT P6SM SCT050=



000
FTUS43 KARX 301136
TAFRST
TAF
KRST 301136Z 3012/3112 29006KT P6SM SKC
     FM301500 33006KT P6SM SCT050
     FM302000 33007KT P6SM VCSH BKN050
     FM310200 29004KT P6SM SCT050=



000
FTUS43 KARX 301029 AAA
TAFRST
TAF AMD
KRST 301029Z 3010/3106 28006KT P6SM SKC
     FM301500 33006KT P6SM SCT050
     FM302000 33007KT P6SM VCSH BKN050
     FM310200 29004KT P6SM SCT050=



000
FTUS43 KARX 301029 AAA
TAFRST
TAF AMD
KRST 301029Z 3010/3106 28006KT P6SM SKC
     FM301500 33006KT P6SM SCT050
     FM302000 33007KT P6SM VCSH BKN050
     FM310200 29004KT P6SM SCT050=



000
FTUS43 KARX 300852 AAB
TAFLSE
TAF AMD
KLSE 300852Z 3009/3106 00000KT 3SM BR SKC
      TEMPO 3009/3010 1SM BR
     FM301000 00000KT 1SM BR SCT003
      TEMPO 3010/3012 1/2SM FG OVC001
     FM301500 31005KT P6SM SCT050
     FM302000 31007KT P6SM VCSH BKN050
     FM310200 VRB04KT P6SM SCT050=



000
FTUS43 KARX 300852 AAB
TAFLSE
TAF AMD
KLSE 300852Z 3009/3106 00000KT 3SM BR SKC
      TEMPO 3009/3010 1SM BR
     FM301000 00000KT 1SM BR SCT003
      TEMPO 3010/3012 1/2SM FG OVC001
     FM301500 31005KT P6SM SCT050
     FM302000 31007KT P6SM VCSH BKN050
     FM310200 VRB04KT P6SM SCT050=



000
FTUS43 KARX 300703 AAA
TAFLSE
TAF AMD
KLSE 300703Z 3007/3106 00000KT 4SM BR SCT090
     FM301000 VRB03KT 3SM BR SCT090
      TEMPO 3010/3012 1SM BR
     FM301500 31005KT P6SM SCT050
     FM302000 31007KT P6SM VCSH BKN050
     FM310200 VRB04KT P6SM SCT050=



000
FTUS43 KARX 300520
TAFRST
TAF
KRST 300520Z 3006/3106 29005KT P6SM SCT080
      TEMPO 3010/3012 5SM BR
     FM301500 33006KT P6SM SCT050
     FM302000 33007KT P6SM VCSH BKN050
     FM310200 29004KT P6SM SCT050=



000
FTUS43 KARX 300520
TAFLSE
TAF
KLSE 300520Z 3006/3106 VRB04KT P6SM SCT090
     FM301000 VRB03KT P6SM VCFG SCT090
      TEMPO 3010/3012 3SM BR
     FM301500 31005KT P6SM SCT050
     FM302000 31007KT P6SM VCSH BKN050
     FM310200 VRB04KT P6SM SCT050=



000
FTUS43 KARX 300520
TAFRST
TAF
KRST 300520Z 3006/3106 29005KT P6SM SCT080
      TEMPO 3010/3012 5SM BR
     FM301500 33006KT P6SM SCT050
     FM302000 33007KT P6SM VCSH BKN050
     FM310200 29004KT P6SM SCT050=



000
FTUS43 KARX 300520
TAFLSE
TAF
KLSE 300520Z 3006/3106 VRB04KT P6SM SCT090
     FM301000 VRB03KT P6SM VCFG SCT090
      TEMPO 3010/3012 3SM BR
     FM301500 31005KT P6SM SCT050
     FM302000 31007KT P6SM VCSH BKN050
     FM310200 VRB04KT P6SM SCT050=



000
FTUS43 KARX 300223 AAB
TAFLSE
TAF AMD
KLSE 300223Z 3002/3024 VRB03KT P6SM -SHRA OVC090
     FM300400 VRB04KT P6SM BKN090
     FM301500 31006KT P6SM SCT050=



000
FTUS43 KARX 300223 AAB
TAFLSE
TAF AMD
KLSE 300223Z 3002/3024 VRB03KT P6SM -SHRA OVC090
     FM300400 VRB04KT P6SM BKN090
     FM301500 31006KT P6SM SCT050=



000
FTUS43 KARX 300127 AAA
TAFRST
TAF AMD
KRST 300127Z 3001/3024 29005KT P6SM VCSH BKN100
      TEMPO 3002/3003 -SHRA BKN050
     FM300300 29005KT P6SM SCT050
     FM301500 33007KT P6SM SCT050=



000
FTUS43 KARX 300127 AAA
TAFRST
TAF AMD
KRST 300127Z 3001/3024 29005KT P6SM VCSH BKN100
      TEMPO 3002/3003 -SHRA BKN050
     FM300300 29005KT P6SM SCT050
     FM301500 33007KT P6SM SCT050=



000
FTUS43 KARX 300047 AAA
TAFLSE
TAF AMD
KLSE 300047Z 3001/3024 VRB04KT 2SM -TSRA SCT020 BKN040CB
     FM300115 VRB04KT P6SM VCTS SCT040CB BKN100
     FM300200 VRB03KT P6SM SCT050
     FM301500 31006KT P6SM SCT050=



000
FTUS43 KARX 300047 AAA
TAFLSE
TAF AMD
KLSE 300047Z 3001/3024 VRB04KT 2SM -TSRA SCT020 BKN040CB
     FM300115 VRB04KT P6SM VCTS SCT040CB BKN100
     FM300200 VRB03KT P6SM SCT050
     FM301500 31006KT P6SM SCT050=



000
FTUS43 KARX 292324
TAFRST
TAF
KRST 292324Z 3000/3024 31008KT P6SM SCT050
     FM300100 29005KT P6SM SKC
     FM301500 33007KT P6SM SCT050=



000
FTUS43 KARX 292324
TAFLSE
TAF
KLSE 292324Z 3000/3024 08007KT P6SM VCSH SCT050 BKN100
     FM300200 VRB03KT P6SM SCT050
     FM301500 31006KT P6SM SCT050=



000
FTUS43 KARX 292324
TAFLSE
TAF
KLSE 292324Z 3000/3024 08007KT P6SM VCSH SCT050 BKN100
     FM300200 VRB03KT P6SM SCT050
     FM301500 31006KT P6SM SCT050=



000
FTUS43 KARX 292324
TAFRST
TAF
KRST 292324Z 3000/3024 31008KT P6SM SCT050
     FM300100 29005KT P6SM SKC
     FM301500 33007KT P6SM SCT050=



000
FTUS43 KARX 292209 AAB
TAFLSE
TAF AMD
KLSE 292209Z 2922/3018 08008KT P6SM VCSH SCT050 BKN100
     FM300100 32005KT P6SM SCT050
     FM300300 32004KT P6SM SKC
     FM301500 31006KT P6SM SCT050=



000
FTUS43 KARX 292209 AAB
TAFLSE
TAF AMD
KLSE 292209Z 2922/3018 08008KT P6SM VCSH SCT050 BKN100
     FM300100 32005KT P6SM SCT050
     FM300300 32004KT P6SM SKC
     FM301500 31006KT P6SM SCT050=



000
FTUS43 KARX 292048 AAA
TAFLSE
TAF AMD
KLSE 292048Z 2921/3018 30009KT P6SM VCTS SCT050CB
      TEMPO 2921/2922 02020KT
     FM292300 31009KT P6SM VCSH SCT050
     FM300100 32005KT P6SM SCT050
     FM300300 32004KT P6SM SKC
     FM301500 31006KT P6SM SCT050=



000
FTUS43 KARX 292048 AAA
TAFLSE
TAF AMD
KLSE 292048Z 2921/3018 30009KT P6SM VCTS SCT050CB
      TEMPO 2921/2922 02020KT
     FM292300 31009KT P6SM VCSH SCT050
     FM300100 32005KT P6SM SCT050
     FM300300 32004KT P6SM SKC
     FM301500 31006KT P6SM SCT050=



000
FTUS43 KARX 291720
TAFLSE
TAF
KLSE 291720Z 2918/3018 30008KT P6SM SCT060
     FM292000 31009KT P6SM VCSH BKN060
     FM300100 32005KT P6SM SCT050
     FM300300 32004KT P6SM SKC
     FM301500 31006KT P6SM SCT050=



000
FTUS43 KARX 291720
TAFRST
TAF
KRST 291720Z 2918/3018 32010KT P6SM SCT050
     FM300100 31005KT P6SM SKC
     FM301500 33008KT P6SM SCT050=



000
FTUS43 KARX 291720
TAFLSE
TAF
KLSE 291720Z 2918/3018 30008KT P6SM SCT060
     FM292000 31009KT P6SM VCSH BKN060
     FM300100 32005KT P6SM SCT050
     FM300300 32004KT P6SM SKC
     FM301500 31006KT P6SM SCT050=



000
FTUS43 KARX 291720
TAFRST
TAF
KRST 291720Z 2918/3018 32010KT P6SM SCT050
     FM300100 31005KT P6SM SKC
     FM301500 33008KT P6SM SCT050=



000
FTUS43 KARX 291129
TAFLSE
TAF
KLSE 291129Z 2912/3012 32003KT P6SM SCT060
     FM291800 31009KT P6SM VCSH BKN060
     FM300100 32005KT P6SM SCT050
     FM300300 33004KT P6SM SKC=



000
FTUS43 KARX 291129
TAFRST
TAF
KRST 291129Z 2912/3012 29005KT P6SM SKC
     FM291630 33010KT P6SM SCT060
     FM300100 31005KT P6SM SKC=



000
FTUS43 KARX 291129
TAFLSE
TAF
KLSE 291129Z 2912/3012 32003KT P6SM SCT060
     FM291800 31009KT P6SM VCSH BKN060
     FM300100 32005KT P6SM SCT050
     FM300300 33004KT P6SM SKC=



000
FTUS43 KARX 291129
TAFRST
TAF
KRST 291129Z 2912/3012 29005KT P6SM SKC
     FM291630 33010KT P6SM SCT060
     FM300100 31005KT P6SM SKC=



000
FTUS43 KARX 290520
TAFRST
TAF
KRST 290520Z 2906/3006 29005KT P6SM SCT060
     FM291800 32009KT P6SM SCT060
     FM300100 31004KT P6SM BKN060=



000
FTUS43 KARX 290520
TAFLSE
TAF
KLSE 290520Z 2906/3006 32006KT P6SM SCT060
     FM291800 30008KT P6SM VCSH BKN060
     FM300100 34004KT P6SM BKN060=



000
FTUS43 KARX 290520
TAFLSE
TAF
KLSE 290520Z 2906/3006 32006KT P6SM SCT060
     FM291800 30008KT P6SM VCSH BKN060
     FM300100 34004KT P6SM BKN060=



000
FTUS43 KARX 290520
TAFRST
TAF
KRST 290520Z 2906/3006 29005KT P6SM SCT060
     FM291800 32009KT P6SM SCT060
     FM300100 31004KT P6SM BKN060=



000
FTUS43 KARX 282324
TAFRST
TAF
KRST 282324Z 2900/2924 32005KT P6SM SCT060
     FM291700 32009KT P6SM SCT060=



000
FTUS43 KARX 282324
TAFRST
TAF
KRST 282324Z 2900/2924 32005KT P6SM SCT060
     FM291700 32009KT P6SM SCT060=



000
FTUS43 KARX 282324
TAFLSE
TAF
KLSE 282324Z 2900/2924 32006KT P6SM SCT060
     FM292100 30009KT P6SM BKN060=



000
FTUS43 KARX 282324
TAFLSE
TAF
KLSE 282324Z 2900/2924 32006KT P6SM SCT060
     FM292100 30009KT P6SM BKN060=



000
FTUS43 KARX 281726
TAFLSE
TAF
KLSE 281726Z 2818/2918 32008KT P6SM BKN070
     FM290200 32005KT P6SM SCT060
     FM291200 33006KT P6SM SKC=



000
FTUS43 KARX 281726
TAFRST
TAF
KRST 281726Z 2818/2918 35008KT P6SM SCT030 BKN060
     FM290200 30005KT P6SM SCT060
     FM290600 31007KT P6SM SKC=



000
FTUS43 KARX 281726
TAFRST
TAF
KRST 281726Z 2818/2918 35008KT P6SM SCT030 BKN060
     FM290200 30005KT P6SM SCT060
     FM290600 31007KT P6SM SKC=



000
FTUS43 KARX 281726
TAFLSE
TAF
KLSE 281726Z 2818/2918 32008KT P6SM BKN070
     FM290200 32005KT P6SM SCT060
     FM291200 33006KT P6SM SKC=



000
FTUS43 KARX 281131
TAFLSE
TAF
KLSE 281131Z 2812/2912 34006KT P6SM BKN060
     FM282000 33010KT P6SM SCT060
     FM290000 33005KT P6SM SKC=



000
FTUS43 KARX 281131
TAFLSE
TAF
KLSE 281131Z 2812/2912 34006KT P6SM BKN060
     FM282000 33010KT P6SM SCT060
     FM290000 33005KT P6SM SKC=



000
FTUS43 KARX 281131
TAFRST
TAF
KRST 281131Z 2812/2912 36004KT P6SM BKN060
     FM281600 35009KT P6SM BKN060
     FM290000 30005KT P6SM SCT060
     FM290600 31006KT P6SM SKC=



000
FTUS43 KARX 281131
TAFRST
TAF
KRST 281131Z 2812/2912 36004KT P6SM BKN060
     FM281600 35009KT P6SM BKN060
     FM290000 30005KT P6SM SCT060
     FM290600 31006KT P6SM SKC=



    US Dept of Commerce
    National Oceanic and Atmospheric Administration
    National Weather Service
    1325 East West Highway
    Silver Spring, MD 20910
    Page Author: NWS Internet Services Team
Disclaimer
Information Quality
Credits
Glossary
Privacy Policy
Freedom of Information Act (FOIA)
About Us
Career Opportunities